Time;durP1;ratioP1;P1;durP2;ratioP2;P2;SDS_P1;SDS_P2;PMS_P1;PMS_P2;Temp;Humidity;BMP_temperature;BMP_pressure;BME280_temperature;BME280_humidity;BME280_pressure;Samples;Min_cycle;Max_cycle;Signal;HPM_P1;HPM_P2
2022/10/09 00:00:42;;;;;;;5.00;3.40;;;;;;;;;;5073519;28;20249;-46
2022/10/09 00:03:09;;;;;;;5.63;3.10;;;;;;;;;;5073127;28;20757;-45
2022/10/09 00:05:36;;;;;;;11.90;3.57;;;;;;;;;;5072669;28;20448;-45
2022/10/09 00:08:02;;;;;;;6.53;2.97;;;;;;;;;;5073039;28;20220;-46
2022/10/09 00:10:28;;;;;;;5.90;3.53;;;;;;;;;;5072782;28;20191;-46
2022/10/09 00:12:54;;;;;;;6.43;3.23;;;;;;;;;;5073071;28;20290;-45
2022/10/09 00:15:21;;;;;;;6.93;3.00;;;;;;;;;;5072241;28;20310;-46
2022/10/09 00:17:47;;;;;;;5.13;3.37;;;;;;;;;;5072261;28;20199;-45
2022/10/09 00:20:13;;;;;;;6.20;2.80;;;;;;;;;;5072426;28;20341;-45
2022/10/09 00:22:42;;;;;;;7.43;2.97;;;;;;;;;;5072298;28;20497;-46
2022/10/09 00:25:08;;;;;;;6.43;3.17;;;;;;;;;;5072624;28;20438;-45
2022/10/09 00:27:34;;;;;;;8.13;3.10;;;;;;;;;;5072761;28;20199;-46
2022/10/09 00:30:00;;;;;;;7.40;2.77;;;;;;;;;;5072030;28;20204;-46
2022/10/09 00:32:26;;;;;;;7.03;3.07;;;;;;;;;;5070730;28;20196;-47
2022/10/09 00:34:52;;;;;;;4.63;3.07;;;;;;;;;;5072778;28;20577;-46
2022/10/09 00:37:19;;;;;;;4.87;3.17;;;;;;;;;;5072384;28;20235;-46
2022/10/09 00:39:46;;;;;;;6.33;2.93;;;;;;;;;;5072260;28;20650;-46
2022/10/09 00:42:12;;;;;;;5.33;3.63;;;;;;;;;;5072515;28;20196;-48
2022/10/09 00:44:53;;;;;;;8.13;2.80;;;;;;;;;;5072372;28;20199;-46
2022/10/09 00:47:21;;;;;;;4.37;2.37;;;;;;;;;;5072436;28;20203;-46
2022/10/09 00:49:49;;;;;;;4.40;3.07;;;;;;;;;;5071936;28;20701;-46
2022/10/09 00:52:15;;;;;;;6.70;2.97;;;;;;;;;;5072144;28;20541;-46
2022/10/09 00:54:42;;;;;;;4.97;2.50;;;;;;;;;;5072056;28;20223;-46
2022/10/09 00:57:10;;;;;;;3.13;2.80;;;;;;;;;;5072314;28;20206;-46
2022/10/09 00:59:37;;;;;;;4.63;2.93;;;;;;;;;;5071561;28;20207;-46
2022/10/09 01:02:03;;;;;;;6.90;3.37;;;;;;;;;;5071582;28;20206;-46
2022/10/09 01:04:30;;;;;;;8.70;2.93;;;;;;;;;;5071863;28;20187;-46
2022/10/09 01:07:02;;;;;;;3.47;2.10;;;;;;;;;;5071686;28;20196;-47
2022/10/09 01:09:32;;;;;;;8.03;2.40;;;;;;;;;;5071930;28;20199;-46
2022/10/09 01:12:00;;;;;;;4.30;2.30;;;;;;;;;;5071939;28;20231;-46
2022/10/09 01:14:29;;;;;;;2.53;2.00;;;;;;;;;;5071778;28;20564;-46
2022/10/09 01:16:57;;;;;;;4.00;2.20;;;;;;;;;;5070336;28;20207;-48
2022/10/09 01:19:32;;;;;;;4.23;2.10;;;;;;;;;;5071837;28;20191;-46
2022/10/09 01:22:03;;;;;;;3.93;2.37;;;;;;;;;;5071846;28;20246;-47
2022/10/09 01:24:33;;;;;;;2.43;1.90;;;;;;;;;;5071821;28;20196;-47
2022/10/09 01:27:04;;;;;;;5.40;2.23;;;;;;;;;;5071760;28;20456;-47
2022/10/09 01:29:33;;;;;;;3.20;2.50;;;;;;;;;;5071557;28;20218;-48
2022/10/09 01:31:59;;;;;;;5.97;2.30;;;;;;;;;;5070372;28;20212;-47
2022/10/09 01:34:27;;;;;;;4.97;2.30;;;;;;;;;;5071490;28;20314;-47
2022/10/09 01:36:53;;;;;;;4.87;2.43;;;;;;;;;;5071632;28;20196;-47
2022/10/09 01:39:20;;;;;;;3.97;2.60;;;;;;;;;;5069912;28;20920;-47
2022/10/09 01:41:47;;;;;;;2.97;2.43;;;;;;;;;;5070078;28;20433;-47
2022/10/09 01:44:19;;;;;;;4.70;2.87;;;;;;;;;;5071115;28;20434;-47
2022/10/09 01:46:45;;;;;;;2.67;2.30;;;;;;;;;;5071284;28;20444;-47
2022/10/09 01:49:16;;;;;;;3.23;2.47;;;;;;;;;;5070262;28;20239;-47
2022/10/09 01:51:48;;;;;;;3.93;2.20;;;;;;;;;;5071110;28;20202;-47
2022/10/09 01:54:15;;;;;;;2.93;2.10;;;;;;;;;;5070753;28;21010;-47
2022/10/09 01:56:44;;;;;;;3.00;2.10;;;;;;;;;;5071369;28;20196;-47
2022/10/09 01:59:12;;;;;;;3.33;2.70;;;;;;;;;;5071317;28;20444;-47
2022/10/09 02:01:41;;;;;;;5.03;2.20;;;;;;;;;;5071360;28;20525;-47
2022/10/09 02:04:08;;;;;;;5.00;2.53;;;;;;;;;;5071098;28;20780;-47
2022/10/09 02:06:35;;;;;;;3.87;2.63;;;;;;;;;;5070516;28;20434;-47
2022/10/09 02:09:03;;;;;;;4.23;2.17;;;;;;;;;;5071016;28;20227;-47
2022/10/09 02:11:31;;;;;;;4.90;2.40;;;;;;;;;;5071121;28;20445;-47
2022/10/09 02:13:57;;;;;;;4.13;2.43;;;;;;;;;;5070077;28;20539;-47
2022/10/09 02:16:29;;;;;;;6.43;2.80;;;;;;;;;;5070514;28;20235;-47
2022/10/09 02:18:57;;;;;;;3.13;2.20;;;;;;;;;;5070245;28;20203;-47
2022/10/09 02:21:26;;;;;;;3.63;2.10;;;;;;;;;;5071154;28;20203;-47
2022/10/09 02:23:53;;;;;;;2.50;2.20;;;;;;;;;;5070912;28;20199;-47
2022/10/09 02:26:19;;;;;;;3.50;2.47;;;;;;;;;;5070990;28;20200;-47
2022/10/09 02:28:45;;;;;;;3.43;2.50;;;;;;;;;;5070134;28;20198;-47
2022/10/09 02:31:13;;;;;;;5.77;2.40;;;;;;;;;;5071074;28;20184;-47
2022/10/09 02:33:39;;;;;;;5.63;2.40;;;;;;;;;;5071016;28;20285;-47
2022/10/09 02:36:07;;;;;;;5.33;2.53;;;;;;;;;;5071034;28;20426;-47
2022/10/09 02:38:33;;;;;;;4.63;2.33;;;;;;;;;;5070539;28;20495;-47
2022/10/09 02:40:59;;;;;;;3.57;2.30;;;;;;;;;;5070909;28;20195;-47
2022/10/09 02:43:25;;;;;;;3.63;2.17;;;;;;;;;;5070874;28;20471;-47
2022/10/09 02:45:51;;;;;;;4.27;2.30;;;;;;;;;;5070951;28;20559;-47
2022/10/09 02:48:17;;;;;;;3.60;2.30;;;;;;;;;;5070565;28;20434;-47
2022/10/09 02:50:43;;;;;;;2.97;2.63;;;;;;;;;;5071055;28;20483;-47
2022/10/09 02:53:11;;;;;;;5.80;2.80;;;;;;;;;;5070950;28;20604;-47
2022/10/09 02:55:37;;;;;;;5.10;2.40;;;;;;;;;;5070843;28;20469;-47
2022/10/09 02:58:03;;;;;;;2.60;2.40;;;;;;;;;;5070665;28;20437;-47
2022/10/09 03:00:29;;;;;;;5.13;2.97;;;;;;;;;;5070416;28;20499;-47
2022/10/09 03:02:55;;;;;;;5.57;3.30;;;;;;;;;;5070176;28;20433;-47
2022/10/09 03:05:21;;;;;;;4.20;3.57;;;;;;;;;;5070672;28;20464;-47
2022/10/09 03:07:50;;;;;;;7.27;3.33;;;;;;;;;;5069802;28;20545;-47
2022/10/09 03:10:18;;;;;;;3.33;2.80;;;;;;;;;;5070571;28;20932;-47
2022/10/09 03:12:44;;;;;;;5.73;3.13;;;;;;;;;;5070499;28;20542;-47
2022/10/09 03:15:10;;;;;;;5.77;3.27;;;;;;;;;;5070531;28;20480;-47
2022/10/09 03:17:36;;;;;;;4.47;2.93;;;;;;;;;;5070987;28;20433;-47
2022/10/09 03:20:02;;;;;;;6.00;3.10;;;;;;;;;;5070495;28;20487;-47
2022/10/09 03:22:28;;;;;;;5.27;2.83;;;;;;;;;;5070592;28;20195;-47
2022/10/09 03:24:54;;;;;;;5.93;3.57;;;;;;;;;;5070426;28;20434;-45
2022/10/09 03:27:22;;;;;;;4.60;2.80;;;;;;;;;;5072877;28;20465;-47
2022/10/09 03:29:48;;;;;;;4.77;2.87;;;;;;;;;;5073678;28;20932;-47
2022/10/09 03:32:14;;;;;;;3.83;3.13;;;;;;;;;;5073931;28;20524;-47
2022/10/09 03:34:40;;;;;;;6.80;3.03;;;;;;;;;;5073885;28;20501;-47
2022/10/09 03:37:06;;;;;;;6.47;3.57;;;;;;;;;;5073905;28;20920;-47
2022/10/09 03:39:32;;;;;;;6.87;3.40;;;;;;;;;;5073812;28;20441;-47
2022/10/09 03:41:58;;;;;;;4.63;2.90;;;;;;;;;;5073699;28;20441;-47
2022/10/09 03:44:25;;;;;;;3.77;3.20;;;;;;;;;;5074074;28;20433;-47
2022/10/09 03:46:51;;;;;;;8.23;3.43;;;;;;;;;;5073816;28;20287;-47
2022/10/09 03:49:17;;;;;;;3.27;2.90;;;;;;;;;;5073475;28;20948;-47
2022/10/09 03:51:43;;;;;;;4.73;3.13;;;;;;;;;;5073762;28;20210;-47
2022/10/09 03:54:09;;;;;;;6.30;3.10;;;;;;;;;;5073473;28;20564;-47
2022/10/09 03:56:35;;;;;;;4.10;2.70;;;;;;;;;;5073662;28;20908;-47
2022/10/09 03:59:04;;;;;;;7.37;3.00;;;;;;;;;;5073501;28;20442;-47
2022/10/09 04:01:31;;;;;;;5.03;3.30;;;;;;;;;;5073384;28;20804;-47
2022/10/09 04:03:57;;;;;;;7.63;3.20;;;;;;;;;;5072923;28;20868;-47
2022/10/09 04:06:23;;;;;;;6.47;3.20;;;;;;;;;;5073345;28;20442;-47
2022/10/09 04:08:49;;;;;;;3.57;3.03;;;;;;;;;;5073451;28;20485;-47
2022/10/09 04:11:15;;;;;;;6.67;3.43;;;;;;;;;;5073507;28;20476;-47
2022/10/09 04:13:41;;;;;;;3.50;2.80;;;;;;;;;;5073086;28;20479;-47
2022/10/09 04:16:11;;;;;;;5.37;3.17;;;;;;;;;;5071888;28;20434;-47
2022/10/09 04:18:39;;;;;;;4.53;2.53;;;;;;;;;;5072619;28;20438;-47
2022/10/09 04:21:05;;;;;;;5.80;2.77;;;;;;;;;;5072749;28;21021;-47
2022/10/09 04:23:31;;;;;;;6.40;2.80;;;;;;;;;;5073154;28;20434;-47
2022/10/09 04:25:58;;;;;;;4.73;2.87;;;;;;;;;;5072903;28;20430;-47
2022/10/09 04:28:24;;;;;;;5.23;2.90;;;;;;;;;;5072794;28;20977;-47
2022/10/09 04:30:50;;;;;;;3.17;2.60;;;;;;;;;;5072945;28;20468;-47
2022/10/09 04:33:16;;;;;;;5.40;2.63;;;;;;;;;;5072812;28;20897;-47
2022/10/09 04:35:44;;;;;;;4.90;3.27;;;;;;;;;;5072568;28;20576;-47
2022/10/09 04:38:10;;;;;;;5.93;3.10;;;;;;;;;;5072363;28;20473;-47
2022/10/09 04:40:36;;;;;;;4.53;2.80;;;;;;;;;;5072911;28;20472;-47
2022/10/09 04:43:02;;;;;;;5.20;3.00;;;;;;;;;;5072388;28;20434;-47
2022/10/09 04:45:28;;;;;;;3.97;2.63;;;;;;;;;;5072620;28;20433;-47
2022/10/09 04:47:54;;;;;;;3.67;2.63;;;;;;;;;;5072407;28;20430;-47
2022/10/09 04:50:20;;;;;;;5.50;2.80;;;;;;;;;;5072252;28;20833;-47
2022/10/09 04:52:48;;;;;;;5.63;3.03;;;;;;;;;;5072435;28;20888;-47
2022/10/09 04:55:14;;;;;;;5.43;2.70;;;;;;;;;;5072231;28;20478;-47
2022/10/09 04:57:40;;;;;;;4.60;3.03;;;;;;;;;;5072628;28;20442;-47
2022/10/09 05:00:06;;;;;;;6.07;3.63;;;;;;;;;;5072290;28;20430;-47
2022/10/09 05:02:32;;;;;;;5.30;3.53;;;;;;;;;;5072249;28;20491;-47
2022/10/09 05:04:58;;;;;;;5.23;3.00;;;;;;;;;;5072081;28;20430;-47
2022/10/09 05:07:24;;;;;;;7.87;3.03;;;;;;;;;;5072267;28;20450;-47
2022/10/09 05:09:52;;;;;;;7.30;3.83;;;;;;;;;;5072033;28;20445;-47
2022/10/09 05:12:18;;;;;;;12.53;6.53;;;;;;;;;;5072238;28;20458;-47
2022/10/09 05:14:44;;;;;;;5.80;3.90;;;;;;;;;;5071622;28;20658;-47
2022/10/09 05:17:10;;;;;;;4.87;3.57;;;;;;;;;;5070896;28;20295;-47
2022/10/09 05:19:36;;;;;;;7.00;3.70;;;;;;;;;;5072174;28;20202;-46
2022/10/09 05:22:02;;;;;;;5.73;3.77;;;;;;;;;;5071686;28;20540;-47
2022/10/09 05:24:28;;;;;;;9.33;4.10;;;;;;;;;;5071927;28;20575;-46
2022/10/09 05:26:55;;;;;;;10.17;4.73;;;;;;;;;;5071899;28;20798;-45
2022/10/09 05:29:21;;;;;;;6.73;4.40;;;;;;;;;;5071690;28;20875;-46
2022/10/09 05:31:47;;;;;;;8.03;4.17;;;;;;;;;;5071733;28;20460;-47
2022/10/09 05:34:13;;;;;;;6.77;4.20;;;;;;;;;;5071658;28;20461;-46
2022/10/09 05:36:40;;;;;;;9.83;4.90;;;;;;;;;;5071190;28;20457;-47
2022/10/09 05:39:06;;;;;;;6.30;4.33;;;;;;;;;;5070293;28;20430;-46
2022/10/09 05:41:32;;;;;;;8.10;4.40;;;;;;;;;;5071556;28;20436;-47
2022/10/09 05:44:01;;;;;;;6.57;4.50;;;;;;;;;;5071636;28;20426;-47
2022/10/09 05:46:29;;;;;;;5.40;4.10;;;;;;;;;;5071411;28;20936;-46
2022/10/09 05:48:56;;;;;;;10.97;4.73;;;;;;;;;;5070619;28;20478;-46
2022/10/09 05:51:23;;;;;;;5.67;5.00;;;;;;;;;;5071486;28;20434;-48
2022/10/09 05:53:49;;;;;;;8.93;5.27;;;;;;;;;;5071258;28;20440;-47
2022/10/09 05:56:16;;;;;;;5.87;4.33;;;;;;;;;;5070404;28;20438;-47
2022/10/09 05:58:43;;;;;;;7.93;5.23;;;;;;;;;;5070462;28;20438;-47
2022/10/09 06:01:11;;;;;;;19.03;11.70;;;;;;;;;;5070913;28;20422;-47
2022/10/09 06:03:37;;;;;;;36.00;16.23;;;;;;;;;;5071134;28;20465;-46
2022/10/09 06:06:04;;;;;;;27.10;15.70;;;;;;;;;;5070920;28;20980;-46
2022/10/09 06:08:31;;;;;;;28.03;17.93;;;;;;;;;;5071131;28;20485;-47
2022/10/09 06:10:57;;;;;;;22.43;14.10;;;;;;;;;;5070244;28;20433;-46
2022/10/09 06:13:24;;;;;;;18.17;11.93;;;;;;;;;;5070925;28;20499;-46
2022/10/09 06:15:53;;;;;;;20.97;11.30;;;;;;;;;;5070615;28;20484;-47
2022/10/09 06:18:21;;;;;;;15.10;10.33;;;;;;;;;;5071087;28;20432;-48
2022/10/09 06:20:53;;;;;;;12.77;9.03;;;;;;;;;;5070739;28;20503;-47
2022/10/09 06:23:19;;;;;;;8.10;6.37;;;;;;;;;;5070800;28;20444;-47
2022/10/09 06:25:50;;;;;;;12.23;7.53;;;;;;;;;;5070879;28;20982;-46
2022/10/09 06:28:16;;;;;;;9.23;6.20;;;;;;;;;;5070858;28;20457;-45
2022/10/09 06:30:42;;;;;;;14.37;6.40;;;;;;;;;;5070644;28;20462;-45
2022/10/09 06:33:08;;;;;;;11.20;6.03;;;;;;;;;;5070881;28;20966;-45
2022/10/09 06:35:36;;;;;;;10.57;6.47;;;;;;;;;;5070786;28;20263;-45
2022/10/09 06:38:02;;;;;;;8.87;5.90;;;;;;;;;;5070842;28;20437;-45
2022/10/09 06:40:28;;;;;;;10.57;6.53;;;;;;;;;;5070927;28;20438;-46
2022/10/09 06:42:54;;;;;;;9.77;7.03;;;;;;;;;;5070455;28;20533;-46
2022/10/09 06:45:20;;;;;;;10.10;7.27;;;;;;;;;;5070298;28;20813;-44
2022/10/09 06:47:46;;;;;;;10.67;6.83;;;;;;;;;;5070531;28;20533;-45
2022/10/09 06:50:12;;;;;;;13.97;6.80;;;;;;;;;;5069456;28;20259;-45
2022/10/09 06:52:39;;;;;;;10.00;6.60;;;;;;;;;;5070873;28;20464;-45
2022/10/09 06:55:05;;;;;;;8.60;6.93;;;;;;;;;;5070556;28;20310;-44
2022/10/09 06:57:31;;;;;;;9.97;6.27;;;;;;;;;;5070855;28;20195;-44
2022/10/09 06:59:57;;;;;;;11.43;6.73;;;;;;;;;;5071288;28;20298;-44
2022/10/09 07:02:24;;;;;;;10.57;6.00;;;;;;;;;;5074136;28;20199;-45
2022/10/09 07:04:50;;;;;;;11.83;5.93;;;;;;;;;;5074411;28;20188;-46
2022/10/09 07:07:16;;;;;;;6.37;5.53;;;;;;;;;;5074091;28;20230;-46
2022/10/09 07:09:43;;;;;;;6.77;6.03;;;;;;;;;;5074805;28;20195;-46
2022/10/09 07:12:09;;;;;;;14.50;6.47;;;;;;;;;;5069097;28;20571;-45
2022/10/09 07:14:35;;;;;;;12.37;6.43;;;;;;;;;;5072662;28;20227;-45
2022/10/09 07:17:02;;;;;;;10.97;6.17;;;;;;;;;;5073305;28;20286;-45
2022/10/09 07:19:28;;;;;;;10.70;5.57;;;;;;;;;;5073352;28;20274;-45
2022/10/09 07:21:54;;;;;;;11.73;6.03;;;;;;;;;;5073123;28;20203;-45
2022/10/09 07:24:23;;;;;;;10.20;5.90;;;;;;;;;;5072526;28;20684;-46
2022/10/09 07:26:52;;;;;;;11.63;6.50;;;;;;;;;;5072916;28;20704;-45
2022/10/09 07:29:18;;;;;;;9.57;6.47;;;;;;;;;;5073393;28;20215;-45
2022/10/09 07:31:45;;;;;;;8.33;5.60;;;;;;;;;;5069752;28;20302;-46
2022/10/09 07:34:11;;;;;;;13.70;7.03;;;;;;;;;;5073871;28;20314;-46
2022/10/09 07:36:37;;;;;;;6.93;5.73;;;;;;;;;;5073219;28;20200;-46
2022/10/09 07:39:03;;;;;;;8.03;5.20;;;;;;;;;;5072994;28;20203;-46
2022/10/09 07:41:30;;;;;;;10.30;5.40;;;;;;;;;;5073721;28;20199;-46
2022/10/09 07:43:57;;;;;;;8.77;4.67;;;;;;;;;;5073717;28;20199;-46
2022/10/09 07:46:24;;;;;;;7.87;5.40;;;;;;;;;;5073241;28;20200;-46
2022/10/09 07:48:51;;;;;;;11.37;5.80;;;;;;;;;;5072562;28;20437;-46
2022/10/09 07:51:18;;;;;;;10.07;6.07;;;;;;;;;;5072451;28;20278;-46
2022/10/09 07:53:44;;;;;;;7.23;5.57;;;;;;;;;;5072614;28;20253;-46
2022/10/09 07:56:13;;;;;;;10.07;5.37;;;;;;;;;;5072308;28;20712;-46
2022/10/09 07:58:39;;;;;;;10.40;5.33;;;;;;;;;;5072469;28;20203;-46
2022/10/09 08:01:07;;;;;;;12.40;5.00;;;;;;;;;;5072230;28;20606;-46
2022/10/09 08:03:33;;;;;;;7.27;4.37;;;;;;;;;;5073100;28;20603;-46
2022/10/09 08:05:59;;;;;;;7.90;4.20;;;;;;;;;;5074236;28;20195;-46
2022/10/09 08:08:25;;;;;;;8.70;3.77;;;;;;;;;;5073726;28;20310;-46
2022/10/09 08:10:51;;;;;;;10.37;3.60;;;;;;;;;;5073943;28;20249;-46
2022/10/09 08:13:17;;;;;;;6.83;4.13;;;;;;;;;;5072848;28;20227;-46
2022/10/09 08:15:44;;;;;;;10.77;3.97;;;;;;;;;;5073734;28;20267;-46
2022/10/09 08:18:12;;;;;;;6.33;3.47;;;;;;;;;;5073638;28;20317;-46
2022/10/09 08:20:38;;;;;;;7.73;3.63;;;;;;;;;;5073583;28;20202;-46
2022/10/09 08:23:04;;;;;;;9.13;3.97;;;;;;;;;;5073551;28;20281;-46
2022/10/09 08:25:33;;;;;;;7.53;3.20;;;;;;;;;;5073511;28;20192;-46
2022/10/09 08:27:59;;;;;;;9.60;3.90;;;;;;;;;;5073536;28;20662;-46
2022/10/09 08:30:25;;;;;;;6.87;3.60;;;;;;;;;;5073420;28;20218;-46
2022/10/09 08:32:51;;;;;;;4.80;3.00;;;;;;;;;;5073523;28;20235;-46
2022/10/09 08:35:18;;;;;;;7.23;3.00;;;;;;;;;;5073385;28;20220;-46
2022/10/09 08:37:45;;;;;;;8.77;3.43;;;;;;;;;;5073285;28;20614;-46
2022/10/09 08:40:15;;;;;;;7.67;3.20;;;;;;;;;;5073180;28;20195;-46
2022/10/09 08:42:43;;;;;;;9.23;3.10;;;;;;;;;;5073294;28;20222;-46
2022/10/09 08:45:13;;;;;;;7.90;3.20;;;;;;;;;;5073036;28;20196;-46
2022/10/09 08:47:43;;;;;;;6.87;2.47;;;;;;;;;;5073012;28;20207;-46
2022/10/09 08:50:12;;;;;;;6.00;2.67;;;;;;;;;;5072852;28;20243;-46
2022/10/09 08:52:42;;;;;;;6.20;2.63;;;;;;;;;;5073044;28;20196;-46
2022/10/09 08:55:13;;;;;;;7.20;3.00;;;;;;;;;;5072873;28;20644;-46
2022/10/09 08:57:40;;;;;;;5.07;2.67;;;;;;;;;;5073082;28;20257;-46
2022/10/09 09:00:10;;;;;;;7.57;3.13;;;;;;;;;;5072907;28;20291;-47
2022/10/09 09:02:45;;;;;;;5.83;2.23;;;;;;;;;;5072868;28;20219;-45
2022/10/09 09:05:19;;;;;;;6.47;2.67;;;;;;;;;;5072687;28;20200;-45
2022/10/09 09:07:50;;;;;;;8.43;2.83;;;;;;;;;;5072787;28;20225;-46
2022/10/09 09:10:19;;;;;;;7.30;2.30;;;;;;;;;;5072535;28;20349;-46
2022/10/09 09:12:47;;;;;;;7.80;2.73;;;;;;;;;;5072453;28;20665;-45
2022/10/09 09:15:19;;;;;;;5.07;2.20;;;;;;;;;;5072314;28;20681;-45
2022/10/09 09:17:48;;;;;;;4.80;2.07;;;;;;;;;;5072459;28;20566;-46
2022/10/09 09:20:15;;;;;;;5.23;2.40;;;;;;;;;;5072322;28;20637;-45
2022/10/09 09:22:45;;;;;;;5.30;2.17;;;;;;;;;;5072294;28;20207;-46
2022/10/09 09:25:17;;;;;;;6.17;2.07;;;;;;;;;;5072200;28;20374;-46
2022/10/09 09:27:44;;;;;;;7.73;2.10;;;;;;;;;;5072605;28;20200;-46
2022/10/09 09:30:14;;;;;;;6.50;2.03;;;;;;;;;;5072205;28;20662;-46
2022/10/09 09:32:43;;;;;;;5.80;2.07;;;;;;;;;;5072143;28;20246;-46
2022/10/09 09:35:14;;;;;;;6.00;2.07;;;;;;;;;;5071834;28;20314;-46
2022/10/09 09:37:40;;;;;;;6.60;2.40;;;;;;;;;;5072047;28;20230;-46
2022/10/09 09:40:12;;;;;;;5.03;1.93;;;;;;;;;;5071538;28;20294;-46
2022/10/09 09:42:40;;;;;;;5.13;2.20;;;;;;;;;;5071723;28;20572;-46
2022/10/09 09:45:07;;;;;;;7.57;2.50;;;;;;;;;;5071864;28;20196;-46
2022/10/09 09:47:34;;;;;;;5.97;2.27;;;;;;;;;;5070552;28;20227;-46
2022/10/09 09:50:01;;;;;;;4.73;2.10;;;;;;;;;;5071439;28;20227;-47
2022/10/09 09:52:28;;;;;;;5.07;1.80;;;;;;;;;;5071498;28;20670;-46
2022/10/09 09:54:57;;;;;;;6.77;2.20;;;;;;;;;;5070811;28;20314;-47
2022/10/09 09:57:28;;;;;;;6.93;2.07;;;;;;;;;;5071409;28;20200;-47
2022/10/09 10:00:05;;;;;;;4.83;1.80;;;;;;;;;;5070802;28;20192;-47
2022/10/09 10:02:31;;;;;;;7.67;2.10;;;;;;;;;;5071418;28;20341;-47
2022/10/09 10:04:58;;;;;;;6.47;2.50;;;;;;;;;;5068849;28;20196;-47
2022/10/09 10:07:28;;;;;;;7.03;2.30;;;;;;;;;;5071540;28;20357;-47
2022/10/09 10:10:01;;;;;;;6.87;2.33;;;;;;;;;;5071500;28;20185;-47
2022/10/09 10:12:27;;;;;;;6.70;2.30;;;;;;;;;;5070258;28;20702;-47
2022/10/09 10:14:53;;;;;;;6.03;1.90;;;;;;;;;;5071034;28;20288;-47
2022/10/09 10:17:25;;;;;;;7.07;2.50;;;;;;;;;;5071591;28;20200;-47
2022/10/09 10:19:51;;;;;;;6.43;1.87;;;;;;;;;;5071193;28;20248;-47
2022/10/09 10:22:21;;;;;;;4.53;1.97;;;;;;;;;;5069807;28;20215;-47
2022/10/09 10:24:48;;;;;;;5.27;2.07;;;;;;;;;;5070815;28;20195;-47
2022/10/09 10:27:20;;;;;;;4.40;2.17;;;;;;;;;;5070313;28;20199;-47
2022/10/09 10:29:47;;;;;;;6.07;2.30;;;;;;;;;;5070978;28;20220;-47
2022/10/09 10:32:16;;;;;;;3.90;2.10;;;;;;;;;;5070618;28;20297;-47
2022/10/09 10:34:46;;;;;;;4.23;1.80;;;;;;;;;;5071477;28;20696;-47
2022/10/09 10:37:22;;;;;;;6.83;2.10;;;;;;;;;;5075302;28;20576;-47
2022/10/09 10:39:51;;;;;;;7.73;2.03;;;;;;;;;;5074707;28;20196;-47
2022/10/09 10:42:21;;;;;;;5.40;1.60;;;;;;;;;;5075119;28;20200;-47
2022/10/09 10:44:49;;;;;;;6.50;2.07;;;;;;;;;;5074992;28;20192;-47
2022/10/09 10:47:18;;;;;;;6.30;2.17;;;;;;;;;;5075039;28;20221;-47
2022/10/09 10:49:45;;;;;;;5.87;1.90;;;;;;;;;;5074705;28;20235;-47
2022/10/09 10:52:16;;;;;;;6.77;2.00;;;;;;;;;;5075143;28;20206;-47
2022/10/09 10:54:48;;;;;;;5.23;1.80;;;;;;;;;;5074382;28;20223;-47
2022/10/09 10:57:16;;;;;;;6.70;2.57;;;;;;;;;;5074608;28;20206;-47
2022/10/09 10:59:46;;;;;;;3.70;1.83;;;;;;;;;;5074171;28;20245;-47
2022/10/09 11:02:28;;;;;;;6.70;1.83;;;;;;;;;;5074315;28;20278;-47
2022/10/09 11:04:59;;;;;;;6.33;2.00;;;;;;;;;;5074576;28;20202;-47
2022/10/09 11:07:31;;;;;;;4.50;1.97;;;;;;;;;;5074403;28;20250;-47
2022/10/09 11:10:01;;;;;;;5.30;2.10;;;;;;;;;;5074466;28;20253;-47
2022/10/09 11:12:30;;;;;;;5.87;1.80;;;;;;;;;;5074321;28;20313;-47
2022/10/09 11:15:01;;;;;;;3.03;1.50;;;;;;;;;;5074054;28;20230;-47
2022/10/09 11:17:32;;;;;;;3.47;1.67;;;;;;;;;;5074120;28;20206;-47
2022/10/09 11:20:06;;;;;;;6.47;1.80;;;;;;;;;;5074491;28;20207;-47
2022/10/09 11:22:39;;;;;;;6.67;2.40;;;;;;;;;;5073979;28;20211;-47
2022/10/09 11:25:13;;;;;;;5.63;1.80;;;;;;;;;;5074010;28;20206;-47
2022/10/09 11:27:43;;;;;;;6.47;1.90;;;;;;;;;;5074268;28;20199;-48
2022/10/09 11:30:10;;;;;;;3.53;1.60;;;;;;;;;;5073794;28;20210;-47
2022/10/09 11:32:39;;;;;;;7.03;1.67;;;;;;;;;;5074071;28;20210;-47
2022/10/09 11:35:13;;;;;;;6.37;1.97;;;;;;;;;;5074230;28;20245;-47
2022/10/09 11:37:41;;;;;;;4.57;1.80;;;;;;;;;;5074148;28;20201;-47
2022/10/09 11:40:13;;;;;;;3.73;1.30;;;;;;;;;;5073808;28;20202;-48
2022/10/09 11:42:39;;;;;;;5.20;1.80;;;;;;;;;;5073195;28;20250;-48
2022/10/09 11:45:14;;;;;;;6.10;1.60;;;;;;;;;;5073668;28;20442;-48
2022/10/09 11:47:44;;;;;;;5.27;1.73;;;;;;;;;;5072911;28;20201;-48
2022/10/09 11:50:17;;;;;;;2.97;1.40;;;;;;;;;;5074108;28;20239;-47
2022/10/09 11:52:47;;;;;;;3.97;1.73;;;;;;;;;;5074167;28;20662;-47
2022/10/09 11:55:17;;;;;;;4.53;1.80;;;;;;;;;;5074090;28;20279;-48
2022/10/09 11:57:43;;;;;;;4.43;1.43;;;;;;;;;;5074215;28;20229;-47
2022/10/09 12:00:10;;;;;;;5.37;1.60;;;;;;;;;;5072366;28;20198;-47
2022/10/09 12:02:37;;;;;;;5.27;1.83;;;;;;;;;;5072072;28;20298;-48
2022/10/09 12:05:16;;;;;;;4.73;1.63;;;;;;;;;;5073622;28;20199;-48
2022/10/09 12:07:42;;;;;;;4.13;1.70;;;;;;;;;;5073545;28;20223;-48
2022/10/09 12:10:19;;;;;;;3.33;1.50;;;;;;;;;;5073503;28;20665;-48
2022/10/09 12:12:54;;;;;;;3.50;1.30;;;;;;;;;;5073645;28;20213;-48
2022/10/09 12:15:24;;;;;;;5.47;1.87;;;;;;;;;;5073099;28;20233;-48
2022/10/09 12:17:50;;;;;;;6.93;2.00;;;;;;;;;;5073287;28;20207;-48
2022/10/09 12:20:20;;;;;;;3.60;1.47;;;;;;;;;;5073280;28;20268;-47
2022/10/09 12:22:47;;;;;;;4.37;1.70;;;;;;;;;;5073310;28;20213;-47
2022/10/09 12:25:16;;;;;;;3.87;1.60;;;;;;;;;;5072021;28;20198;-48
2022/10/09 12:27:43;;;;;;;3.10;1.50;;;;;;;;;;5073689;28;20201;-47
2022/10/09 12:30:17;;;;;;;4.63;1.70;;;;;;;;;;5073691;28;20250;-48
2022/10/09 12:32:45;;;;;;;3.33;1.90;;;;;;;;;;5073475;28;20716;-48
2022/10/09 12:35:21;;;;;;;5.20;1.77;;;;;;;;;;5073284;28;20586;-51
2022/10/09 12:37:48;;;;;;;3.43;1.50;;;;;;;;;;5073360;28;20651;-48
2022/10/09 12:40:16;;;;;;;2.87;1.50;;;;;;;;;;5073097;28;20209;-47
2022/10/09 12:42:43;;;;;;;4.80;1.40;;;;;;;;;;5072986;28;20693;-48
2022/10/09 12:45:15;;;;;;;3.63;1.50;;;;;;;;;;5073124;28;20739;-48
2022/10/09 12:47:41;;;;;;;4.37;1.73;;;;;;;;;;5073082;28;20198;-48
2022/10/09 12:50:12;;;;;;;3.87;1.30;;;;;;;;;;5073131;28;20265;-48
2022/10/09 12:52:46;;;;;;;3.10;1.37;;;;;;;;;;5072940;28;20198;-47
2022/10/09 12:55:22;;;;;;;3.37;1.60;;;;;;;;;;5072944;28;20218;-48
2022/10/09 12:57:48;;;;;;;7.43;1.90;;;;;;;;;;5072647;28;20664;-48
2022/10/09 13:00:14;;;;;;;5.80;1.53;;;;;;;;;;5072764;28;20235;-48
2022/10/09 13:02:40;;;;;;;5.80;1.70;;;;;;;;;;5072725;28;20740;-48
2022/10/09 13:05:06;;;;;;;4.63;1.90;;;;;;;;;;5072813;28;20689;-48
2022/10/09 13:07:33;;;;;;;5.07;1.70;;;;;;;;;;5072474;28;20225;-48
2022/10/09 13:10:00;;;;;;;3.47;1.30;;;;;;;;;;5072643;28;20593;-48
2022/10/09 13:12:28;;;;;;;4.77;1.60;;;;;;;;;;5072427;28;20208;-48
2022/10/09 13:14:56;;;;;;;3.17;1.60;;;;;;;;;;5072150;28;20221;-49
2022/10/09 13:17:23;;;;;;;3.20;1.67;;;;;;;;;;5072236;28;20290;-49
2022/10/09 13:19:50;;;;;;;3.20;1.60;;;;;;;;;;5071706;28;20199;-48
2022/10/09 13:22:20;;;;;;;5.23;1.50;;;;;;;;;;5072130;28;20263;-48
2022/10/09 13:24:47;;;;;;;5.93;1.60;;;;;;;;;;5071893;28;20243;-48
2022/10/09 13:27:13;;;;;;;4.30;2.17;;;;;;;;;;5071727;28;20650;-48
2022/10/09 13:29:41;;;;;;;3.07;1.60;;;;;;;;;;5070945;28;20264;-48
2022/10/09 13:32:09;;;;;;;4.03;1.70;;;;;;;;;;5071777;28;20213;-48
2022/10/09 13:34:35;;;;;;;2.33;1.20;;;;;;;;;;5071115;28;20292;-48
2022/10/09 13:37:01;;;;;;;5.40;1.70;;;;;;;;;;5071822;28;20289;-48
2022/10/09 13:39:28;;;;;;;4.93;1.93;;;;;;;;;;5071971;28;20552;-48
2022/10/09 13:41:56;;;;;;;4.53;1.50;;;;;;;;;;5071665;28;20692;-48
2022/10/09 13:44:22;;;;;;;5.90;1.83;;;;;;;;;;5071714;28;20198;-48
2022/10/09 13:46:50;;;;;;;3.33;1.70;;;;;;;;;;5071677;28;20194;-48
2022/10/09 13:49:16;;;;;;;4.73;1.60;;;;;;;;;;5071651;28;20242;-48
2022/10/09 13:51:42;;;;;;;4.30;1.40;;;;;;;;;;5071430;28;20197;-48
2022/10/09 13:54:08;;;;;;;5.10;1.50;;;;;;;;;;5071176;28;20207;-48
2022/10/09 13:56:34;;;;;;;4.97;1.63;;;;;;;;;;5071074;28;20263;-48
2022/10/09 13:59:00;;;;;;;3.40;1.40;;;;;;;;;;5071380;28;20241;-48
2022/10/09 14:01:26;;;;;;;4.40;1.50;;;;;;;;;;5071516;28;20687;-48
2022/10/09 14:03:53;;;;;;;2.97;1.40;;;;;;;;;;5071553;28;20563;-48
2022/10/09 14:06:21;;;;;;;6.53;1.67;;;;;;;;;;5071073;28;20200;-48
2022/10/09 14:08:47;;;;;;;2.60;1.30;;;;;;;;;;5071148;28;20228;-48
2022/10/09 14:11:13;;;;;;;4.63;1.47;;;;;;;;;;5070608;28;20684;-47
2022/10/09 14:13:39;;;;;;;1.93;1.13;;;;;;;;;;5071488;28;20200;-50
2022/10/09 14:16:06;;;;;;;3.40;1.50;;;;;;;;;;5071134;28;20271;-48
2022/10/09 14:18:32;;;;;;;3.23;1.40;;;;;;;;;;5071394;28;20893;-47
2022/10/09 14:20:59;;;;;;;3.27;1.63;;;;;;;;;;5071472;28;20197;-47
2022/10/09 14:23:25;;;;;;;5.77;1.50;;;;;;;;;;5071222;28;20203;-47
2022/10/09 14:25:51;;;;;;;3.23;1.47;;;;;;;;;;5071092;28;20193;-47
2022/10/09 14:28:17;;;;;;;5.53;1.60;;;;;;;;;;5071499;28;20192;-47
2022/10/09 14:30:43;;;;;;;4.23;1.80;;;;;;;;;;5071380;28;20195;-48
2022/10/09 14:33:11;;;;;;;4.77;1.83;;;;;;;;;;5071435;28;20287;-48
2022/10/09 14:35:37;;;;;;;6.93;1.73;;;;;;;;;;5071036;28;20589;-48
2022/10/09 14:38:04;;;;;;;3.60;1.73;;;;;;;;;;5071177;28;20203;-48
2022/10/09 14:40:30;;;;;;;4.77;1.60;;;;;;;;;;5070838;28;20300;-48
2022/10/09 14:42:56;;;;;;;3.23;2.13;;;;;;;;;;5070868;28;20298;-48